Time;durP1;ratioP1;P1;durP2;ratioP2;P2;SDS_P1;SDS_P2;PMS_P1;PMS_P2;Temp;Humidity;BMP_temperature;BMP_pressure;BME280_temperature;BME280_humidity;BME280_pressure;Samples;Min_cycle;Max_cycle;Signal;HPM_P1;HPM_P2
2022/07/21 06:43:58;;;;;;;11.57;7.70;;;23.10;74.10;;;;;;4861923;29;20061;-76
2022/07/21 06:46:24;;;;;;;14.15;9.20;;;23.00;74.00;;;;;;4863959;29;20153;-78
2022/07/21 06:48:50;;;;;;;15.85;9.05;;;23.00;74.00;;;;;;4864010;29;20045;-77
2022/07/21 06:51:16;;;;;;;15.15;9.63;;;22.90;74.50;;;;;;4847796;29;20445;-74
2022/07/21 06:53:42;;;;;;;16.25;8.60;;;22.90;74.60;;;;;;4863429;29;20456;-74
2022/07/21 06:56:09;;;;;;;11.55;9.27;;;22.90;74.10;;;;;;4863708;29;20046;-73
2022/07/21 06:58:35;;;;;;;11.82;8.50;;;22.90;74.20;;;;;;4863766;29;20057;-74
2022/07/21 07:01:01;;;;;;;10.05;6.60;;;22.80;74.40;;;;;;4863844;29;20065;-78
2022/07/21 07:03:27;;;;;;;14.63;6.30;;;22.80;74.60;;;;;;4867492;29;20413;-77
2022/07/21 07:05:53;;;;;;;11.73;6.43;;;22.90;74.70;;;;;;4863107;29;20189;-75
2022/07/21 07:08:19;;;;;;;14.15;7.95;;;22.90;74.60;;;;;;4863430;29;20085;-75
2022/07/21 07:10:46;;;;;;;18.90;7.80;;;23.00;74.30;;;;;;4863617;29;20136;-77
2022/07/21 07:13:13;;;;;;;13.63;7.25;;;23.00;74.30;;;;;;4863151;29;20041;-76
2022/07/21 07:15:39;;;;;;;12.18;7.25;;;23.10;74.30;;;;;;4862845;29;20452;-75
2022/07/21 07:18:05;;;;;;;13.75;7.63;;;23.10;74.20;;;;;;4862404;29;20050;-78
2022/07/21 07:20:32;;;;;;;13.23;8.30;;;23.20;74.00;;;;;;4863132;29;20046;-77
2022/07/21 07:22:57;;;;;;;13.98;10.05;;;23.20;73.90;;;;;;4863117;29;20049;-82
2022/07/21 08:22:03;;;;;;;15.10;13.45;;;23.00;75.50;;;;;;4787080;30;20526;-75
2022/07/21 08:24:28;;;;;;;14.25;12.25;;;23.00;76.20;;;;;;4788380;30;20273;-73
2022/07/21 08:26:54;;;;;;;15.95;13.15;;;22.90;76.20;;;;;;4792503;29;20126;-76
2022/07/21 08:29:20;;;;;;;18.63;12.32;;;22.90;76.10;;;;;;4793704;30;20152;-76
2022/07/21 08:31:46;;;;;;;18.17;11.32;;;22.90;76.20;;;;;;4792978;30;20125;-75
2022/07/21 08:34:12;;;;;;;13.63;10.88;;;22.90;76.30;;;;;;4793842;30;20156;-75
2022/07/21 08:36:38;;;;;;;15.32;10.15;;;22.90;76.10;;;;;;4793275;30;20128;-70
2022/07/21 08:39:03;;;;;;;14.32;11.55;;;23.00;76.00;;;;;;4778044;30;20059;-78
2022/07/21 08:41:31;;;;;;;12.77;11.40;;;23.00;75.90;;;;;;4792510;30;20108;-77
2022/07/21 08:43:57;;;;;;;14.63;13.02;;;23.10;75.90;;;;;;4792804;30;20051;-78
2022/07/21 08:46:23;;;;;;;17.15;15.38;;;23.10;75.90;;;;;;4793455;30;20404;-76
2022/07/21 08:48:50;;;;;;;20.10;18.00;;;23.10;76.20;;;;;;4793021;30;20528;-79
2022/07/21 08:51:16;;;;;;;19.10;16.88;;;23.10;76.30;;;;;;4792976;30;20058;-78
2022/07/21 08:53:46;;;;;;;19.92;17.92;;;23.10;76.40;;;;;;4792629;30;20055;-76
2022/07/21 08:56:13;;;;;;;20.83;18.52;;;23.10;76.40;;;;;;4792622;30;20055;-76
2022/07/21 08:58:38;;;;;;;20.75;18.65;;;23.10;76.50;;;;;;4792841;30;20047;-78
2022/07/21 09:01:05;;;;;;;20.77;18.70;;;23.10;76.30;;;;;;4793279;30;20431;-78
2022/07/21 09:03:32;;;;;;;20.77;17.58;;;23.10;76.20;;;;;;4776391;29;20360;-80
2022/07/21 09:06:01;;;;;;;20.30;18.23;;;23.10;76.20;;;;;;4792340;29;20070;-75
2022/07/21 09:08:31;;;;;;;21.02;18.77;;;23.10;76.40;;;;;;4792080;30;20160;-79
2022/07/21 09:11:21;;;;;;;19.30;17.30;;;23.10;76.50;;;;;;4792524;30;20059;-75
2022/07/21 09:13:51;;;;;;;17.90;15.93;;;23.10;76.10;;;;;;4792897;30;20070;-77
2022/07/21 09:16:40;;;;;;;21.80;19.02;;;23.20;76.10;;;;;;4792570;30;20425;-77
2022/07/21 09:19:07;;;;;;;23.30;20.02;;;23.20;75.90;;;;;;4792168;30;20058;-74
2022/07/21 09:21:36;;;;;;;22.27;18.50;;;23.20;76.00;;;;;;4791844;29;20062;-79
2022/07/21 09:24:12;;;;;;;22.95;18.35;;;23.20;76.20;;;;;;4792164;30;20055;-76
2022/07/21 09:27:13;;;;;;;23.95;17.85;;;23.10;76.10;;;;;;4792211;29;20058;-75
2022/07/21 09:29:48;;;;;;;19.08;16.63;;;23.10;75.90;;;;;;4792488;30;20135;-75
2022/07/21 09:32:18;;;;;;;19.80;17.30;;;23.00;75.90;;;;;;4791991;30;20547;-75
2022/07/21 09:34:46;;;;;;;20.90;16.98;;;23.00;75.90;;;;;;4799510;29;20436;-76
2022/07/21 09:37:12;;;;;;;18.48;15.32;;;23.00;75.80;;;;;;4809191;29;20068;-78
2022/07/21 09:39:42;;;;;;;16.48;14.23;;;23.00;75.90;;;;;;4794260;29;20055;-77
2022/07/21 09:42:26;;;;;;;16.23;14.32;;;23.00;75.80;;;;;;4809912;29;20062;-76
2022/07/21 09:44:59;;;;;;;17.60;14.63;;;23.10;75.70;;;;;;4809695;29;20532;-77
2022/07/21 09:47:29;;;;;;;16.48;13.88;;;23.10;75.60;;;;;;4793870;29;20058;-79
2022/07/21 09:49:57;;;;;;;15.65;13.57;;;23.10;75.60;;;;;;4809965;29;20641;-76
2022/07/21 09:52:37;;;;;;;14.73;12.95;;;23.10;75.40;;;;;;4794269;29;20188;-77
2022/07/21 09:55:06;;;;;;;13.38;11.98;;;23.10;75.30;;;;;;4794191;29;20055;-78
2022/07/21 09:57:33;;;;;;;16.10;12.38;;;23.20;75.30;;;;;;4809924;29;20116;-77
2022/07/21 09:59:59;;;;;;;13.23;11.77;;;23.20;75.20;;;;;;4794427;29;20138;-78
2022/07/21 10:02:29;;;;;;;12.57;11.30;;;23.20;75.00;;;;;;4809264;29;20073;-76
2022/07/21 10:05:00;;;;;;;12.23;11.02;;;23.30;74.90;;;;;;4809461;29;20088;-78
2022/07/21 10:07:28;;;;;;;12.55;9.88;;;23.30;74.80;;;;;;4790393;29;20080;-73
2022/07/21 10:09:55;;;;;;;12.40;9.77;;;23.30;74.70;;;;;;4809408;29;20047;-75
2022/07/21 10:12:22;;;;;;;10.80;8.27;;;23.30;74.70;;;;;;4794039;29;20050;-72
2022/07/21 10:14:48;;;;;;;11.73;9.02;;;23.30;74.70;;;;;;4809372;29;20047;-72
2022/07/21 10:17:16;;;;;;;10.60;8.20;;;23.30;74.60;;;;;;4809156;29;20199;-73
2022/07/21 10:20:00;;;;;;;12.70;8.57;;;23.30;74.50;;;;;;4809676;29;20120;-73
2022/07/21 10:22:54;;;;;;;11.93;8.70;;;23.30;74.50;;;;;;4809225;29;20058;-73
2022/07/21 10:25:22;;;;;;;10.40;7.63;;;23.30;74.60;;;;;;4809242;29;20123;-71
2022/07/21 10:28:35;;;;;;;10.98;8.00;;;23.20;74.80;;;;;;4808996;29;20054;-73
2022/07/21 10:31:13;;;;;;;14.50;8.98;;;23.20;74.90;;;;;;4797372;29;20063;-72
2022/07/21 10:33:44;;;;;;;10.95;9.60;;;23.20;74.90;;;;;;4808910;29;20477;-73
2022/07/21 10:36:34;;;;;;;13.18;9.88;;;23.20;74.90;;;;;;4809208;29;20062;-71
2022/07/21 10:39:09;;;;;;;10.68;9.52;;;23.20;75.00;;;;;;4806346;29;20076;-71
2022/07/21 10:41:49;;;;;;;11.15;9.20;;;23.10;75.20;;;;;;4808193;29;20059;-74
2022/07/21 10:44:30;;;;;;;12.40;9.70;;;23.10;75.30;;;;;;4809339;29;20047;-72
2022/07/21 10:47:20;;;;;;;10.45;9.45;;;23.10;75.50;;;;;;4809047;29;20054;-73
2022/07/21 10:49:56;;;;;;;11.05;9.10;;;23.00;75.50;;;;;;4808789;29;20382;-74
2022/07/21 10:52:34;;;;;;;11.68;10.20;;;23.00;75.80;;;;;;4808258;29;20073;-75
2022/07/21 10:55:28;;;;;;;12.32;10.27;;;23.10;75.80;;;;;;4808465;29;20043;-72
2022/07/21 10:58:32;;;;;;;11.95;9.90;;;23.00;75.60;;;;;;4808748;29;20055;-72
2022/07/21 11:00:58;;;;;;;9.90;8.88;;;23.00;75.90;;;;;;4808350;29;20057;-71
2022/07/21 11:03:26;;;;;;;10.65;9.57;;;22.90;76.00;;;;;;4808136;29;20054;-72
2022/07/21 11:06:27;;;;;;;12.38;11.18;;;22.90;76.50;;;;;;4808848;29;20097;-71
2022/07/21 11:09:02;;;;;;;10.73;9.55;;;22.90;76.80;;;;;;4808664;29;20057;-73
2022/07/21 11:11:29;;;;;;;12.75;9.00;;;22.90;77.00;;;;;;4808646;29;20065;-72
2022/07/21 11:14:20;;;;;;;10.13;8.23;;;22.80;76.60;;;;;;4808443;29;20046;-72
2022/07/21 11:16:49;;;;;;;11.93;9.38;;;22.90;76.60;;;;;;4807910;29;20480;-73
2022/07/21 11:19:31;;;;;;;10.43;7.63;;;22.90;77.00;;;;;;4808280;29;20050;-71
2022/07/21 11:22:03;;;;;;;8.23;7.43;;;22.90;77.30;;;;;;4807551;29;20362;-71
2022/07/21 11:24:29;;;;;;;9.68;8.68;;;22.90;76.70;;;;;;4808252;29;20116;-73
2022/07/21 11:27:00;;;;;;;13.93;9.07;;;23.00;77.30;;;;;;4807514;29;20054;-75
2022/07/21 11:29:26;;;;;;;14.30;9.32;;;23.10;77.50;;;;;;4808152;29;20137;-74
2022/07/21 11:31:52;;;;;;;12.18;8.80;;;23.10;77.60;;;;;;4808262;29;20137;-77
2022/07/21 11:34:19;;;;;;;11.15;8.68;;;23.10;77.60;;;;;;4808713;29;20051;-72
2022/07/21 11:36:45;;;;;;;10.27;8.38;;;23.10;77.90;;;;;;4807646;29;20050;-72
2022/07/21 11:39:15;;;;;;;9.85;7.22;;;23.10;77.70;;;;;;4792441;29;20055;-72
2022/07/21 11:41:42;;;;;;;11.68;7.30;;;23.10;77.60;;;;;;4807422;29;20070;-73
2022/07/21 11:44:10;;;;;;;10.95;6.85;;;23.10;77.60;;;;;;4807975;29;20047;-74
2022/07/21 11:46:47;;;;;;;9.15;7.05;;;23.10;77.60;;;;;;4807844;29;20053;-73
2022/07/21 11:49:13;;;;;;;8.20;6.90;;;23.20;77.30;;;;;;4807904;29;20059;-73
2022/07/21 11:51:56;;;;;;;7.80;6.40;;;23.20;77.20;;;;;;4792624;29;20467;-74
2022/07/21 11:54:25;;;;;;;7.05;6.10;;;23.20;76.90;;;;;;4807861;29;20051;-73
2022/07/21 11:56:53;;;;;;;5.60;5.00;;;23.20;76.70;;;;;;4807890;29;20458;-75
2022/07/21 11:59:19;;;;;;;5.18;4.68;;;23.10;76.60;;;;;;4807772;29;20095;-72
2022/07/21 12:02:02;;;;;;;5.13;4.50;;;23.10;76.60;;;;;;4807150;29;20459;-73
2022/07/21 12:04:36;;;;;;;5.50;4.90;;;23.10;76.30;;;;;;4807777;29;20095;-73
2022/07/21 12:07:10;;;;;;;4.55;4.10;;;23.10;76.20;;;;;;4808125;29;20046;-73
2022/07/21 12:09:36;;;;;;;4.60;4.15;;;23.10;76.00;;;;;;4807580;29;20051;-74
2022/07/21 12:12:02;;;;;;;5.50;4.43;;;23.00;76.20;;;;;;4808305;29;20047;-74
2022/07/21 12:14:46;;;;;;;5.28;4.78;;;23.00;76.20;;;;;;4807229;29;20050;-71
2022/07/21 12:17:14;;;;;;;5.18;4.68;;;23.00;76.30;;;;;;4808459;29;20115;-72
2022/07/21 12:19:40;;;;;;;4.65;4.25;;;23.00;76.20;;;;;;4817743;29;20078;-73
2022/07/21 12:22:06;;;;;;;5.25;4.40;;;23.00;76.20;;;;;;4805625;29;20098;-72
2022/07/21 12:43:59;;;;;;;8.18;5.70;;;23.20;76.00;;;;;;4862199;29;20099;-73
2022/07/21 12:46:44;;;;;;;6.43;5.70;;;23.10;75.90;;;;;;4862596;29;20111;-74
2022/07/21 12:49:11;;;;;;;7.18;6.00;;;23.00;76.00;;;;;;4862159;29;20057;-74
2022/07/21 12:51:37;;;;;;;6.18;5.45;;;23.00;75.90;;;;;;4862971;29;20045;-73
2022/07/21 12:54:03;;;;;;;7.80;4.70;;;23.00;76.10;;;;;;4862023;29;20088;-73
2022/07/21 12:56:33;;;;;;;7.35;4.95;;;23.00;76.30;;;;;;4863139;29;20041;-74
2022/07/21 12:59:00;;;;;;;8.10;5.00;;;23.00;76.50;;;;;;4862470;29;20128;-74
2022/07/21 13:01:28;;;;;;;8.63;4.40;;;23.10;76.50;;;;;;4862107;29;20050;-73
2022/07/21 13:03:54;;;;;;;7.30;4.57;;;23.10;76.40;;;;;;4861993;29;20057;-74
2022/07/21 13:06:20;;;;;;;8.05;5.43;;;23.20;76.30;;;;;;4861824;29;20060;-72
2022/07/21 13:08:47;;;;;;;10.57;4.30;;;23.20;76.10;;;;;;4862492;29;20049;-73
2022/07/21 13:11:16;;;;;;;6.93;4.82;;;23.20;76.00;;;;;;4862026;29;20472;-72
2022/07/21 13:13:41;;;;;;;6.20;4.22;;;23.20;75.80;;;;;;4865312;29;20055;-74
2022/07/21 13:16:08;;;;;;;7.97;4.10;;;23.20;75.70;;;;;;4865489;29;20416;-74
2022/07/21 13:18:34;;;;;;;10.68;4.53;;;23.20;75.70;;;;;;4865181;29;20153;-75
2022/07/21 13:21:01;;;;;;;7.60;4.10;;;23.30;75.80;;;;;;4864467;29;20419;-72
2022/07/21 13:23:26;;;;;;;10.80;3.95;;;23.20;75.50;;;;;;4864271;29;20081;-73
2022/07/21 13:25:52;;;;;;;10.57;4.35;;;23.20;75.50;;;;;;4865248;29;20088;-75
2022/07/21 13:28:18;;;;;;;8.23;3.83;;;23.30;75.70;;;;;;4865199;29;20074;-77
2022/07/21 13:30:46;;;;;;;6.30;4.32;;;23.20;75.60;;;;;;4865171;29;20060;-74
2022/07/21 13:33:14;;;;;;;6.18;4.47;;;23.30;75.80;;;;;;4865255;29;20088;-75
2022/07/21 13:35:41;;;;;;;7.07;4.65;;;23.30;76.00;;;;;;4868384;29;20052;-76
2022/07/21 13:38:06;;;;;;;6.68;4.43;;;23.20;76.00;;;;;;4874901;29;20053;-75
2022/07/21 13:40:32;;;;;;;7.93;4.50;;;23.30;76.00;;;;;;4870521;29;20041;-74
2022/07/21 13:42:58;;;;;;;9.93;3.80;;;23.30;76.00;;;;;;4886263;29;20107;-75
2022/07/21 13:45:24;;;;;;;7.70;4.18;;;23.20;75.80;;;;;;4890750;29;20136;-75
2022/07/21 13:47:49;;;;;;;11.45;5.25;;;23.30;75.80;;;;;;4887293;29;20049;-78
2022/07/21 13:50:15;;;;;;;11.13;5.60;;;23.30;75.80;;;;;;4867178;29;20048;-75
2022/07/21 13:52:41;;;;;;;7.25;6.20;;;23.30;76.00;;;;;;4883564;29;20049;-76
2022/07/21 13:55:08;;;;;;;7.32;5.32;;;23.30;76.30;;;;;;4883237;29;20053;-74
2022/07/21 13:57:35;;;;;;;6.00;5.30;;;23.30;76.20;;;;;;4867057;29;20049;-74
2022/07/21 14:00:05;;;;;;;10.30;6.00;;;23.30;76.20;;;;;;4883023;29;20049;-75
2022/07/21 14:02:30;;;;;;;13.50;6.28;;;23.30;76.00;;;;;;4885145;29;20380;-69
2022/07/21 14:04:56;;;;;;;12.00;6.57;;;23.30;76.20;;;;;;4881877;29;20049;-74
2022/07/21 14:07:22;;;;;;;10.35;6.93;;;23.30;76.20;;;;;;4901795;29;20059;-74
2022/07/21 14:09:47;;;;;;;10.60;6.53;;;23.30;76.20;;;;;;4897099;29;20124;-75
2022/07/21 14:12:14;;;;;;;8.30;6.40;;;23.30;76.20;;;;;;4896922;29;20077;-74
2022/07/21 14:14:40;;;;;;;6.78;5.10;;;23.30;76.20;;;;;;4891605;29;20104;-73
2022/07/21 14:17:06;;;;;;;23.60;6.90;;;23.30;76.10;;;;;;4887076;29;20128;-73
2022/07/21 14:19:32;;;;;;;12.80;6.47;;;23.30;76.00;;;;;;4883219;29;20136;-75
2022/07/21 14:21:57;;;;;;;14.18;5.65;;;23.30;76.20;;;;;;4883012;29;20341;-71
2022/07/21 14:27:07;;;;;;;12.55;6.15;;;23.30;76.10;;;;;;4882553;29;20140;-71
2022/07/21 14:29:33;;;;;;;10.90;5.68;;;23.30;76.00;;;;;;4882617;29;20091;-72
2022/07/21 14:31:59;;;;;;;9.90;4.95;;;23.40;76.00;;;;;;4882132;29;20063;-71
2022/07/21 14:34:24;;;;;;;8.15;5.35;;;23.40;75.90;;;;;;4882400;29;20052;-71
2022/07/21 14:36:51;;;;;;;7.32;4.70;;;23.40;75.70;;;;;;4882230;29;20067;-72
2022/07/21 14:39:18;;;;;;;8.00;4.80;;;23.40;75.70;;;;;;4882400;29;20052;-72
2022/07/21 14:41:44;;;;;;;7.20;4.68;;;23.50;75.60;;;;;;4882359;29;20413;-71
2022/07/21 14:44:10;;;;;;;7.88;4.50;;;23.50;75.60;;;;;;4881849;29;20121;-72
2022/07/21 14:46:36;;;;;;;6.93;5.13;;;23.50;75.50;;;;;;4881734;29;20484;-71
2022/07/21 14:49:02;;;;;;;5.93;4.68;;;23.50;75.40;;;;;;4882132;29;20087;-72
2022/07/21 14:51:29;;;;;;;7.75;4.68;;;23.50;75.40;;;;;;4881996;29;20048;-72
2022/07/21 14:53:55;;;;;;;8.45;3.72;;;23.50;75.20;;;;;;4882413;29;20049;-74
2022/07/21 14:56:20;;;;;;;9.10;3.50;;;23.50;74.90;;;;;;4881969;29;20441;-78
2022/07/21 14:58:46;;;;;;;5.63;3.08;;;23.50;74.50;;;;;;4865632;29;20053;-75
2022/07/21 15:01:12;;;;;;;9.30;3.10;;;23.40;74.00;;;;;;4882164;29;20067;-77
2022/07/21 15:03:38;;;;;;;7.95;2.42;;;23.40;73.70;;;;;;4865877;29;20057;-75
2022/07/21 15:06:05;;;;;;;5.63;2.20;;;23.30;73.50;;;;;;4881226;29;20049;-77
2022/07/21 15:08:31;;;;;;;5.93;2.05;;;23.30;72.30;;;;;;4881800;29;20045;-75
2022/07/21 15:10:57;;;;;;;5.78;2.22;;;23.30;72.50;;;;;;4882046;29;20053;-75
2022/07/21 15:13:27;;;;;;;4.45;1.85;;;23.30;72.60;;;;;;4881815;29;20480;-74
2022/07/21 15:15:53;;;;;;;4.70;1.90;;;23.40;72.60;;;;;;4881875;29;20127;-77
2022/07/21 15:18:22;;;;;;;6.03;1.77;;;23.40;72.40;;;;;;4881976;29;20059;-76
2022/07/21 15:20:48;;;;;;;6.00;1.40;;;23.40;72.10;;;;;;4881917;29;20400;-78
2022/07/21 15:23:14;;;;;;;8.38;1.70;;;23.30;71.30;;;;;;4865063;29;20080;-77
2022/07/21 15:25:40;;;;;;;3.83;1.17;;;23.30;71.70;;;;;;4881137;29;20405;-77
2022/07/21 15:28:05;;;;;;;6.82;1.30;;;23.30;71.20;;;;;;4865211;29;20063;-77
2022/07/21 15:30:32;;;;;;;5.13;1.38;;;23.30;71.50;;;;;;4880405;29;20170;-75
2022/07/21 15:32:59;;;;;;;5.05;1.42;;;23.10;70.50;;;;;;4865299;29;20136;-78
2022/07/21 15:35:25;;;;;;;8.07;1.27;;;23.10;70.80;;;;;;4864197;29;20084;-78
2022/07/21 15:37:51;;;;;;;7.32;1.45;;;23.00;70.60;;;;;;4881567;29;20080;-80
2022/07/21 15:40:17;;;;;;;5.07;1.30;;;22.80;69.90;;;;;;4881144;29;20433;-78
2022/07/21 15:42:43;;;;;;;6.00;1.25;;;22.70;70.10;;;;;;4881405;29;20334;-78
2022/07/21 15:45:11;;;;;;;7.15;1.75;;;22.80;71.20;;;;;;4864000;29;20136;-78
2022/07/21 15:47:37;;;;;;;5.10;1.15;;;22.80;71.50;;;;;;4880518;29;20417;-78
2022/07/21 15:50:03;;;;;;;4.80;1.00;;;22.90;71.70;;;;;;4885724;29;20037;-76
2022/07/21 15:52:29;;;;;;;4.40;1.30;;;22.90;71.80;;;;;;4887623;29;20387;-77
2022/07/21 15:54:55;;;;;;;3.75;1.20;;;22.90;71.80;;;;;;4900433;29;20052;-77
2022/07/21 15:57:21;;;;;;;4.22;0.98;;;22.90;71.70;;;;;;4893107;29;20192;-75
2022/07/21 15:59:49;;;;;;;5.30;1.20;;;22.90;71.60;;;;;;4881022;29;20112;-76
2022/07/21 16:02:16;;;;;;;4.40;1.05;;;22.80;71.40;;;;;;4864876;29;20053;-77
2022/07/21 16:04:43;;;;;;;3.70;0.90;;;22.80;71.00;;;;;;4862977;29;20128;-76
2022/07/21 16:07:10;;;;;;;6.03;0.70;;;22.80;71.20;;;;;;4878419;29;21167;-77
2022/07/21 16:09:37;;;;;;;3.72;0.80;;;22.70;71.10;;;;;;4880073;29;20472;-78
2022/07/21 16:12:04;;;;;;;5.35;1.20;;;22.70;70.90;;;;;;4880998;29;20064;-77
2022/07/21 16:14:30;;;;;;;3.63;0.47;;;22.70;70.80;;;;;;4864620;29;20381;-73
2022/07/21 16:16:56;;;;;;;4.07;0.63;;;22.70;70.80;;;;;;4881300;29;20064;-75
2022/07/21 16:19:23;;;;;;;3.13;0.82;;;22.70;70.70;;;;;;4880864;29;20468;-74
2022/07/21 16:21:50;;;;;;;4.00;0.70;;;22.70;70.70;;;;;;4879904;29;20045;-76
2022/07/21 16:24:16;;;;;;;4.15;0.95;;;22.70;70.70;;;;;;4880166;29;20049;-75
2022/07/21 16:26:43;;;;;;;4.75;0.73;;;22.70;70.50;;;;;;4864774;29;20105;-73
2022/07/21 16:29:10;;;;;;;3.70;0.63;;;22.70;70.60;;;;;;4890361;29;20049;-75
2022/07/21 16:31:37;;;;;;;6.13;0.95;;;22.60;70.50;;;;;;4883948;29;20053;-73
2022/07/21 16:34:04;;;;;;;4.68;0.93;;;22.60;70.70;;;;;;4884660;29;20041;-73
2022/07/21 16:36:29;;;;;;;5.15;0.55;;;22.60;70.50;;;;;;4880796;29;20460;-73
2022/07/21 16:38:55;;;;;;;10.27;1.35;;;22.60;70.60;;;;;;4864641;29;20055;-75
2022/07/21 16:41:22;;;;;;;10.38;1.42;;;22.60;70.60;;;;;;4880463;29;20044;-71
2022/07/21 16:43:48;;;;;;;6.22;1.08;;;22.50;70.70;;;;;;4880538;29;20373;-71
2022/07/21 16:46:14;;;;;;;5.22;0.90;;;22.60;70.60;;;;;;4880926;29;20152;-71
2022/07/21 16:48:40;;;;;;;10.88;1.08;;;22.50;70.40;;;;;;4868162;29;20128;-71
2022/07/21 16:51:06;;;;;;;6.22;1.05;;;22.50;70.40;;;;;;4884164;29;20125;-70
2022/07/21 16:53:31;;;;;;;4.47;0.73;;;22.50;70.40;;;;;;4868859;29;20049;-71
2022/07/21 16:55:57;;;;;;;4.15;0.90;;;22.50;70.50;;;;;;4883722;29;20056;-72
2022/07/21 16:58:23;;;;;;;5.40;0.90;;;22.50;70.50;;;;;;4872891;29;20167;-71
2022/07/21 17:00:49;;;;;;;5.57;0.70;;;22.50;70.50;;;;;;4884363;29;20041;-72
2022/07/21 17:03:15;;;;;;;7.13;0.80;;;22.50;70.60;;;;;;4883724;29;20045;-71
2022/07/21 17:05:40;;;;;;;6.28;1.27;;;22.50;70.60;;;;;;4883605;29;20144;-71
2022/07/21 17:08:06;;;;;;;4.97;0.80;;;22.50;70.40;;;;;;4884279;29;20087;-70
2022/07/21 17:10:32;;;;;;;6.28;1.05;;;22.50;70.50;;;;;;4883745;29;20049;-69
2022/07/21 17:12:58;;;;;;;9.60;1.05;;;22.50;70.90;;;;;;4866419;29;20535;-70
2022/07/21 17:15:23;;;;;;;7.70;1.20;;;22.50;71.10;;;;;;4883647;29;20057;-69
2022/07/21 17:17:50;;;;;;;8.48;1.15;;;22.50;71.30;;;;;;4882084;29;20051;-71
2022/07/21 17:20:16;;;;;;;9.82;0.80;;;22.50;71.40;;;;;;4881518;29;20044;-70
2022/07/21 18:12:07;;;;;;;2.25;0.35;;;22.20;70.50;;;;;;4820083;29;20141;-69
2022/07/21 18:14:33;;;;;;;4.00;0.68;;;22.20;70.90;;;;;;4827535;29;20524;-71
2022/07/21 18:16:58;;;;;;;3.28;0.60;;;22.20;71.00;;;;;;4828456;29;20058;-70
2022/07/21 18:19:24;;;;;;;2.42;0.43;;;22.10;70.90;;;;;;4827905;29;20053;-69
2022/07/21 18:21:50;;;;;;;4.60;0.70;;;22.10;70.50;;;;;;4827837;29;20137;-70
2022/07/21 18:24:16;;;;;;;3.17;0.60;;;22.10;70.50;;;;;;4826558;29;20086;-71
2022/07/21 18:26:42;;;;;;;5.80;0.82;;;22.10;70.50;;;;;;4828004;29;20087;-69
2022/07/21 18:29:08;;;;;;;4.30;0.50;;;22.10;70.40;;;;;;4811255;29;20129;-69
2022/07/21 18:31:34;;;;;;;6.65;0.60;;;22.10;70.30;;;;;;4827280;29;20109;-69
2022/07/21 18:33:59;;;;;;;4.25;0.82;;;22.10;70.30;;;;;;4827650;29;20054;-69
2022/07/21 18:36:25;;;;;;;3.30;0.80;;;22.00;70.40;;;;;;4828118;29;20376;-69
2022/07/21 18:38:51;;;;;;;3.60;0.50;;;22.00;70.40;;;;;;4827573;29;20554;-69
2022/07/21 18:41:17;;;;;;;3.50;0.95;;;22.00;70.40;;;;;;4826520;29;20046;-69
2022/07/21 18:43:42;;;;;;;3.17;0.70;;;22.00;70.20;;;;;;4827517;29;20073;-69
2022/07/21 18:46:08;;;;;;;3.55;0.88;;;22.00;70.10;;;;;;4827157;29;20062;-70
2022/07/21 18:48:34;;;;;;;3.42;0.70;;;21.90;70.20;;;;;;4827254;29;20054;-69
2022/07/21 18:51:00;;;;;;;1.88;0.40;;;21.90;70.40;;;;;;4827026;29;20050;-69
2022/07/21 18:53:26;;;;;;;3.20;0.47;;;21.90;70.60;;;;;;4827862;29;20366;-70
2022/07/21 18:55:51;;;;;;;3.28;0.40;;;21.90;70.40;;;;;;4827792;29;20077;-70
2022/07/21 18:58:19;;;;;;;5.22;0.52;;;21.80;70.50;;;;;;4827034;29;20054;-70
2022/07/21 19:00:46;;;;;;;2.97;0.52;;;21.80;70.40;;;;;;4826632;29;20469;-70
2022/07/21 19:03:12;;;;;;;2.53;0.60;;;21.80;70.60;;;;;;4827428;29;20062;-71
2022/07/21 19:05:38;;;;;;;3.70;0.88;;;21.70;70.30;;;;;;4827248;29;20351;-70
2022/07/21 19:08:04;;;;;;;3.75;1.02;;;21.80;70.50;;;;;;4827112;29;20057;-71
2022/07/21 19:10:30;;;;;;;6.65;0.70;;;21.80;70.20;;;;;;4826750;29;20050;-71
2022/07/21 19:12:55;;;;;;;2.72;0.85;;;21.70;69.80;;;;;;4826072;29;20054;-71
2022/07/21 19:15:21;;;;;;;3.47;1.20;;;21.70;69.80;;;;;;4827544;29;20150;-71
2022/07/21 19:17:48;;;;;;;3.60;1.10;;;21.70;69.70;;;;;;4826510;29;20054;-72
2022/07/21 19:20:16;;;;;;;4.80;1.48;;;21.70;69.70;;;;;;4826772;29;20054;-73
2022/07/21 19:22:43;;;;;;;5.20;1.05;;;21.70;69.60;;;;;;4810802;29;20054;-71
2022/07/21 19:25:09;;;;;;;3.88;1.05;;;21.70;70.10;;;;;;4826548;29;20118;-72
2022/07/21 19:27:35;;;;;;;2.92;0.75;;;21.70;69.40;;;;;;4826966;29;20369;-72
2022/07/21 19:30:02;;;;;;;4.88;0.95;;;21.70;69.30;;;;;;4826547;29;20047;-74
2022/07/21 19:32:28;;;;;;;3.17;0.80;;;21.70;69.40;;;;;;4826054;29;20050;-70
2022/07/21 19:34:54;;;;;;;3.70;0.80;;;21.70;69.20;;;;;;4826898;29;20061;-71
2022/07/21 19:37:19;;;;;;;5.45;1.10;;;21.70;69.30;;;;;;4810146;29;20552;-71
2022/07/21 19:39:45;;;;;;;4.20;0.82;;;21.70;69.20;;;;;;4826417;29;20093;-71
2022/07/21 19:42:11;;;;;;;3.22;0.80;;;21.60;69.00;;;;;;4826816;29;20134;-71
2022/07/21 19:44:36;;;;;;;2.53;0.77;;;21.60;69.00;;;;;;4826038;29;20072;-71
2022/07/21 19:47:02;;;;;;;3.33;0.80;;;21.60;69.10;;;;;;4826606;29;20058;-72
2022/07/21 19:49:28;;;;;;;4.18;0.57;;;21.60;68.90;;;;;;4826245;29;20125;-73
2022/07/21 19:51:54;;;;;;;5.80;0.95;;;21.60;68.90;;;;;;4826444;29;20062;-72
2022/07/21 19:54:19;;;;;;;4.43;1.02;;;21.60;68.80;;;;;;4826622;29;20065;-71
2022/07/21 19:56:45;;;;;;;8.00;1.20;;;21.60;68.80;;;;;;4826578;29;20046;-72
2022/07/21 19:59:14;;;;;;;4.85;0.80;;;21.60;68.70;;;;;;4826220;29;20060;-71
2022/07/21 20:01:40;;;;;;;5.47;1.00;;;21.60;68.70;;;;;;4826149;29;20122;-73
2022/07/21 20:04:05;;;;;;;5.85;1.40;;;21.60;68.60;;;;;;4826134;29;20050;-72
2022/07/21 20:06:31;;;;;;;4.85;1.17;;;21.60;68.50;;;;;;4826102;29;20058;-71
2022/07/21 20:08:57;;;;;;;6.00;1.33;;;21.60;68.50;;;;;;4826504;29;20050;-71
2022/07/21 20:11:22;;;;;;;5.55;0.82;;;21.60;68.50;;;;;;4809759;29;20373;-73
2022/07/21 20:13:48;;;;;;;5.07;1.00;;;21.60;68.50;;;;;;4826177;29;20062;-72
2022/07/21 20:16:15;;;;;;;7.72;0.95;;;21.60;68.60;;;;;;4826042;29;20381;-71
2022/07/21 20:18:41;;;;;;;3.38;1.17;;;21.50;68.50;;;;;;4826294;29;20047;-73
2022/07/21 20:21:06;;;;;;;6.07;1.33;;;21.60;68.60;;;;;;4826188;29;20089;-73
2022/07/21 20:23:32;;;;;;;4.68;0.95;;;21.60;68.70;;;;;;4829466;29;20462;-72
2022/07/21 20:25:58;;;;;;;2.65;0.90;;;21.60;68.60;;;;;;4829446;29;20061;-70
